NCAR-RAP Real-Time Weather Data

Output produced by METARs form (24 April 2018  16:25 UTC)
found at http://weather.rap.ucar.edu/surface/
 
RJCH 241100Z 10007KT 8000 -SHRA FEW005 BKN010 BKN015 08/07 Q1014
RJCH 241000Z 09005KT 6000 -SHRA FEW005 BKN010 BKN015 07/07 Q1014
RJCH 240936Z 09005KT 6000 -SHRA FEW006 BKN010 BKN015 07/07 Q1014 RMK 1ST006 6ST010 7ST015 A2996
RJCH 240900Z 09005KT 7000 -SHRA FEW006 BKN009 BKN012 07/06 Q1014
RJCH 240800Z 09006KT 9999 -SHRA FEW006 BKN009 BKN012 08/06 Q1014
RJCH 240720Z 08006KT 9999 -SHRA FEW006 BKN009 BKN012 08/06 Q1014 RMK 1ST006 6ST009 7ST012 A2997
RJCH 240700Z 08008KT 9999 -SHRA FEW007 BKN010 BKN015 08/06 Q1015
RJCH 240646Z 07005KT 9999 -SHRA FEW007 BKN010 BKN015 08/06 Q1014 RMK 1ST007 5ST010 7ST015 A2997
RJCH 240627Z 09006KT 9999 -SHRA FEW004 BKN007 BKN010 07/06 Q1015 RMK 1ST004 5ST007 7ST010 A2997
RJCH 240600Z 10012KT 9999 -SHRA FEW003 BKN006 BKN009 07/07 Q1015
RJCH 240500Z 08009KT 9999 -SHRA FEW003 BKN007 BKN010 07/06 Q1015
RJCH 240400Z 08008KT 9999 -SHRA FEW004 BKN007 BKN010 07/06 Q1016
RJCH 240317Z 08011KT 8000 -SHRA FEW003 BKN007 BKN010 07/06 Q1016 RMK 1ST003 5ST007 7ST010 A3003
RJCH 240300Z 08012KT 8000 -SHRA FEW004 BKN006 BKN009 07/06 Q1017
RJCH 240221Z 09011KT 7000 -SHRA FEW004 BKN006 BKN008 07/06 Q1017 RMK 1ST004 5ST006 7ST008 A3005
RJCH 240200Z 08012KT 5000 -SHRA BR FEW002 BKN005 BKN008 07/07 Q1017
RJCH 240111Z 07008KT 030V110 5000 -SHRA BR FEW003 BKN005 BKN008 08/07 Q1018 RMK 1ST003 5ST005 7ST008 A3008
RJCH 240100Z 07009KT 040V100 4500 -SHRA BR FEW002 BKN005 BKN008 08/07 Q1018
RJCH 240031Z 07009KT 4900 -SHRA BR FEW002 BKN005 BKN008 08/07 Q1018 RMK 1ST002 5ST005 7ST008 A3008
RJCH 240000Z 07011KT 5000 -SHRA BR FEW002 BKN005 BKN008 07/07 Q1018
RJCH 232346Z 07010KT 5000 -SHRA BR FEW002 BKN006 BKN010 07/07 Q1018 RMK 1ST002 5ST006 7ST010 A3008
RJCH 232300Z 07010KT 6000 -SHRA FEW004 BKN008 BKN010 08/07 Q1019
RJCH 232250Z 07010KT 6000 -SHRA FEW004 BKN008 BKN010 08/07 Q1019 RMK 1ST004 5ST008 7ST010 A3009
RJCH 232236Z 07010KT 6000 -SHRA FEW004 SCT008 BKN010 08/07 Q1019 RMK 1ST004 4ST008 7ST010 A3010
RJCH 232200Z 07009KT 5000 -SHRA BR FEW004 BKN008 BKN010 08/07 Q1019
RJCH 232110Z 07010KT 5000 -SHRA BR FEW003 BKN007 BKN010 08/07 Q1019 RMK 1ST003 5ST007 7ST010 A3010
RJCH 231100Z 06008KT 9999 FEW010 BKN/// 07/04 Q1023
RJCH 231000Z 07003KT 030V100 9999 FEW010 BKN/// 07/03 Q1023
RJCH 230900Z 10008KT 9999 FEW010 BKN/// 09/02 Q1023
RJCH 230800Z 09009KT 9999 FEW010 BKN/// 11/M01 Q1023
RJCH 230700Z 12013KT 9999 FEW007 BKN/// 12/01 Q1023
RJCH 230600Z 13013KT 9999 FEW007 BKN/// 12/01 Q1023
RJCH 230500Z 13013KT 9999 FEW010 BKN/// 12/03 Q1024
RJCH 230400Z 14015KT 9999 FEW030 BKN/// 11/03 Q1024
RJCH 230300Z 14014KT 9999 FEW025 BKN/// 11/03 Q1025
RJCH 230200Z 13015KT 9999 FEW030 BKN/// 10/04 Q1025
RJCH 230100Z 13016KT 9999 FEW025 BKN/// 10/05 Q1026
RJCH 230000Z 14012KT 9999 FEW020 BKN/// 10/04 Q1026
RJCH 222300Z 16006KT 9999 FEW015 BKN/// 08/04 Q1026
RJCH 222200Z 09007KT 9999 FEW015 BKN/// 07/04 Q1026
RJCH 222110Z 06006KT 9999 FEW015 BKN/// 06/04 Q1026 RMK 2ST015 A3031
RJCH 221100Z 05004KT 9999 FEW030 BKN160 10/04 Q1022
RJCH 221000Z 16004KT 120V200 9999 FEW030 SCT110 BKN150 11/05 Q1021
RJCH 220900Z 14004KT 9999 FEW040 SCT090 BKN120 12/04 Q1020
RJCH 220800Z 12012KT 9999 FEW040 SCT100 BKN130 11/05 Q1020
RJCH 220700Z 14012KT 9999 FEW045 SCT110 BKN160 13/03 Q1019
RJCH 220646Z 15013KT 9999 FEW040 SCT110 BKN150 15/00 Q1019 RMK 1CU040 4AC110 6AC150 A3011
RJCH 220602Z 07010KT 9999 FEW045 SCT170 BKN/// 16/M04 Q1019 RMK 1CU045 4AC170 A3009
RJCH 220600Z VRB03KT 9999 FEW045 SCT170 BKN/// 16/M04 Q1018
RJCH 220500Z 18006KT 9999 FEW040 SCT180 BKN/// 13/05 Q1018